Time;durP1;ratioP1;P1;durP2;ratioP2;P2;SDS_P1;SDS_P2;PMS_P1;PMS_P2;Temp;Humidity;BMP_temperature;BMP_pressure;BME280_temperature;BME280_humidity;BME280_pressure;Samples;Min_cycle;Max_cycle;Signal;HPM_P1;HPM_P2
2021/11/11 10:16:34;;;;;;;54.83;26.77;;;;;;;3.38;100.00;95806.78;5134753;27;20353;-63
2021/11/11 10:19:03;;;;;;;75.47;33.40;;;;;;;3.54;100.00;95734.88;5136491;27;20031;-64
2021/11/11 10:24:36;;;;;;;91.22;40.20;;;;;;;3.79;100.00;95648.41;5131111;27;20079;-64
2021/11/11 10:27:28;;;;;;;86.30;40.40;;;;;;;3.90;100.00;95620.44;5129820;27;20028;-63
2021/11/11 10:30:00;;;;;;;73.70;37.28;;;;;;;3.98;100.00;95588.41;5115956;27;20038;-61
2021/11/11 10:32:37;;;;;;;75.13;37.50;;;;;;;4.17;100.00;95562.03;5131330;27;20114;-62
2021/11/11 10:35:17;;;;;;;78.05;35.97;;;;;;;4.23;100.00;95532.84;5093597;28;20451;-64
2021/11/11 10:37:48;;;;;;;64.53;32.88;;;;;;;4.39;100.00;95514.75;5112424;27;20059;-63
2021/11/11 10:40:21;;;;;;;60.13;33.45;;;;;;;4.52;100.00;95502.19;5125963;27;20067;-63
2021/11/11 10:42:47;;;;;;;;;;;;;;;4.53;100.00;95489.75;5125349;27;20047;-63
2021/11/11 10:45:16;;;;;;;54.95;30.42;;;;;;;4.57;100.00;95486.47;5109074;27;19929;-62
2021/11/11 10:47:45;;;;;;;56.42;30.02;;;;;;;4.82;100.00;95469.69;5130021;27;20027;-63
2021/11/11 10:50:15;;;;;;;59.13;32.15;;;;;;;5.21;100.00;95453.34;5119071;27;20401;-63
2021/11/11 10:52:40;;;;;;;62.88;32.92;;;;;;;5.43;100.00;95436.97;5096505;27;20417;-63
2021/11/11 10:55:07;;;;;;;57.90;33.47;;;;;;;5.69;100.00;95422.50;5119439;27;20024;-63
2021/11/11 10:57:45;;;;;;;50.10;30.30;;;;;;;5.95;100.00;95414.16;5124413;27;20027;-62
2021/11/11 11:00:19;;;;;;;51.20;29.85;;;;;;;6.15;100.00;95405.06;5124214;27;20030;-63
2021/11/11 11:02:54;;;;;;;48.80;29.08;;;;;;;6.42;100.00;95402.81;5120984;27;20027;-63
2021/11/11 11:05:22;;;;;;;33.38;21.95;;;;;;;6.33;100.00;95415.63;5091488;27;20059;-64
2021/11/11 11:07:51;;;;;;;35.22;22.67;;;;;;;6.38;100.00;95413.06;5123425;27;20401;-61
2021/11/11 11:10:17;;;;;;;32.65;21.35;;;;;;;6.53;100.00;95428.59;5084055;27;20617;-63
2021/11/11 11:12:43;;;;;;;33.33;21.27;;;;;;;6.64;100.00;95436.59;5121035;27;20024;-63
2021/11/11 11:15:09;;;;;;;33.55;20.05;;;;;;;6.74;100.00;95440.53;5107242;28;20042;-64
2021/11/11 11:17:34;;;;;;;31.90;20.08;;;;;;;6.64;100.00;95439.25;5126020;27;20023;-64
2021/11/11 11:20:20;;;;;;;29.95;19.85;;;;;;;6.64;100.00;95446.44;5122586;27;20108;-64
2021/11/11 11:22:46;;;;;;;31.60;20.05;;;;;;;6.80;100.00;95453.72;5108316;27;20040;-63
2021/11/11 11:25:14;;;;;;;31.92;19.48;;;;;;;6.91;100.00;95452.09;5109101;28;20492;-63
2021/11/11 11:27:39;;;;;;;31.10;20.73;;;;;;;7.03;100.00;95460.88;5115127;27;20027;-64
2021/11/11 11:30:17;;;;;;;32.35;20.83;;;;;;;7.20;100.00;95458.31;5110768;27;20159;-63
2021/11/11 11:32:45;;;;;;;30.13;20.05;;;;;;;7.38;100.00;95460.00;5097641;27;20023;-63
2021/11/11 11:35:12;;;;;;;30.13;20.30;;;;;;;7.49;100.00;95467.19;5100437;27;20024;-64
2021/11/11 11:37:38;;;;;;;33.88;20.75;;;;;;;7.65;100.00;95469.09;5076348;28;20023;-64
2021/11/11 11:40:10;;;;;;;33.42;20.75;;;;;;;7.78;100.00;95473.34;5092871;28;20038;-64
2021/11/11 11:42:40;;;;;;;30.42;19.77;;;;;;;7.90;100.00;95459.94;5101237;28;20108;-64
2021/11/11 11:45:15;;;;;;;30.95;20.27;;;;;;;7.97;100.00;95466.78;5095732;28;20049;-63
2021/11/11 11:47:52;;;;;;;28.63;18.88;;;;;;;8.04;100.00;95459.44;5115847;27;20039;-63
2021/11/11 11:50:30;;;;;;;31.40;19.73;;;;;;;8.22;100.00;95465.59;5111890;27;20031;-63
2021/11/11 11:53:03;;;;;;;29.80;18.98;;;;;;;8.12;100.00;95466.22;5097440;27;20394;-63
2021/11/11 11:58:12;;;;;;;27.98;18.75;;;;;;;8.27;100.00;95463.84;5091080;27;20030;-63
2021/11/11 12:40:00;;;;;;;26.30;18.23;;;;;;;9.61;100.00;95443.34;5029349;28;20033;-65
2021/11/11 12:42:53;;;;;;;25.90;17.67;;;;;;;9.79;100.00;95438.50;5029190;28;20039;-65
2021/11/11 12:45:31;;;;;;;26.02;18.27;;;;;;;10.20;100.00;95425.50;5027969;28;20021;-65
2021/11/11 12:47:58;;;;;;;28.50;19.40;;;;;;;10.30;100.00;95420.28;5013342;28;20025;-65
2021/11/11 12:50:29;;;;;;;26.08;18.80;;;;;;;10.45;100.00;95415.06;5016400;28;20036;-65
2021/11/11 12:53:22;;;;;;;24.42;18.05;;;;;;;10.55;100.00;95402.81;5009193;28;20074;-65
2021/11/11 12:55:59;;;;;;;30.80;20.57;;;;;;;10.67;100.00;95385.50;5009781;28;20432;-65
2021/11/11 12:58:34;;;;;;;29.10;20.08;;;;;;;10.79;100.00;95365.75;5027970;28;20676;-65
2021/11/11 13:01:11;;;;;;;26.23;18.20;;;;;;;10.91;100.00;95359.09;4992022;28;20025;-63
2021/11/11 13:04:01;;;;;;;29.33;19.17;;;;;;;10.98;100.00;95326.72;5025672;28;20499;-65
2021/11/11 13:06:49;;;;;;;28.42;19.00;;;;;;;11.19;100.00;95276.69;5028292;28;20388;-65
2021/11/11 13:09:19;;;;;;;31.38;19.70;;;;;;;11.49;100.00;95225.78;5025543;28;20067;-65
2021/11/11 13:11:47;;;;;;;28.80;20.08;;;;;;;11.65;100.00;95180.19;5014360;28;20434;-64
2021/11/11 13:14:22;;;;;;;30.08;19.58;;;;;;;11.81;100.00;95120.09;5031064;28;20037;-65
2021/11/11 13:16:53;;;;;;;34.30;20.35;;;;;;;11.85;100.00;95057.56;5030791;28;20033;-66
2021/11/11 13:19:52;;;;;;;29.65;19.73;;;;;;;11.86;100.00;95013.53;5024287;28;20041;-65
2021/11/11 13:54:26;;;;;;;32.40;19.40;;;;;;;12.07;100.00;95113.59;5014490;28;20056;-65
2021/11/11 14:00:28;;;;;;;29.45;19.73;;;;;;;11.72;100.00;95160.06;5030713;28;20048;-65
2021/11/11 16:26:27;;;;;;;30.27;17.63;;;;;;;4.08;100.00;95675.44;5032574;28;20039;-65
2021/11/11 16:28:58;;;;;;;29.88;18.52;;;;;;;3.95;100.00;95681.59;5035488;28;20519;-65
2021/11/11 16:31:24;;;;;;;27.98;17.27;;;;;;;3.87;100.00;95700.38;5033505;28;20037;-65
2021/11/11 16:33:50;;;;;;;33.47;18.05;;;;;;;3.79;100.00;95705.91;4987580;28;20124;-65
2021/11/11 16:36:19;;;;;;;28.45;18.05;;;;;;;3.76;100.00;95717.72;5011508;28;20186;-65
2021/11/11 16:38:49;;;;;;;31.63;18.35;;;;;;;3.76;100.00;95724.88;5012777;28;20500;-65
2021/11/11 16:41:16;;;;;;;32.92;19.15;;;;;;;3.78;100.00;95738.72;5009601;28;20025;-65
2021/11/11 16:43:42;;;;;;;31.02;19.83;;;;;;;3.74;100.00;95738.31;5010388;28;20135;-65
2021/11/11 16:46:07;;;;;;;34.00;19.60;;;;;;;3.74;100.00;95753.41;4995606;28;20045;-64
2021/11/11 16:48:36;;;;;;;31.98;19.85;;;;;;;3.69;100.00;95758.50;5012444;28;20033;-65
2021/11/11 16:51:04;;;;;;;34.72;18.98;;;;;;;3.65;100.00;95757.28;5027825;28;20021;-65
2021/11/11 16:53:31;;;;;;;34.38;20.70;;;;;;;3.64;100.00;95767.06;5011341;28;20044;-65
2021/11/11 16:55:58;;;;;;;31.50;19.08;;;;;;;3.66;100.00;95770.31;5008887;28;20044;-65
2021/11/11 16:58:27;;;;;;;30.50;19.60;;;;;;;3.61;100.00;95780.72;5011002;28;20037;-65
2021/11/11 17:00:53;;;;;;;29.92;19.77;;;;;;;3.56;100.00;95780.50;5012618;28;20036;-65
2021/11/11 17:03:20;;;;;;;37.90;19.83;;;;;;;3.52;100.00;95783.78;5012401;28;20049;-65
2021/11/11 17:05:46;;;;;;;33.80;19.10;;;;;;;3.48;100.00;95792.13;5032512;28;20520;-64
2021/11/11 17:08:12;;;;;;;31.90;19.98;;;;;;;3.40;100.00;95794.97;5030328;28;20376;-65
2021/11/11 17:10:38;;;;;;;32.50;20.02;;;;;;;3.32;100.00;95789.06;5034443;28;20029;-65
2021/11/11 17:13:06;;;;;;;34.40;20.10;;;;;;;3.25;100.00;95788.22;4991510;28;20026;-65
2021/11/11 17:15:34;;;;;;;31.15;19.77;;;;;;;3.22;100.00;95797.38;5011056;28;20017;-65
2021/11/11 17:18:00;;;;;;;32.20;20.05;;;;;;;3.17;100.00;95799.84;5028687;28;20029;-65
2021/11/11 17:20:28;;;;;;;33.83;19.08;;;;;;;3.10;100.00;95806.94;5011780;28;20029;-65
2021/11/11 17:22:57;;;;;;;35.22;18.55;;;;;;;2.98;100.00;95812.00;5011491;28;20112;-65
2021/11/11 17:30:37;;;;;;;29.58;18.00;;;;;;;2.70;100.00;95814.75;5009706;28;20045;-65
2021/11/11 17:33:02;;;;;;;30.50;19.05;;;;;;;2.66;100.00;95810.88;5012461;28;20028;-65
2021/11/11 17:35:28;;;;;;;29.15;18.63;;;;;;;2.65;100.00;95811.09;5030656;28;20030;-65
2021/11/11 17:37:53;;;;;;;34.08;18.88;;;;;;;2.61;100.00;95810.66;5008048;28;20028;-65
2021/11/11 17:40:19;;;;;;;28.65;18.42;;;;;;;2.56;100.00;95816.53;5006519;28;20036;-64
2021/11/11 17:42:46;;;;;;;29.92;19.25;;;;;;;2.53;100.00;95813.47;5012093;28;20049;-65
2021/11/11 17:45:17;;;;;;;32.22;19.75;;;;;;;2.50;100.00;95816.53;4994468;28;20017;-65
2021/11/11 17:47:46;;;;;;;36.47;19.50;;;;;;;2.48;100.00;95815.88;5031656;28;20052;-65
2021/11/11 17:50:21;;;;;;;37.60;19.88;;;;;;;2.43;100.00;95813.03;5024594;28;20091;-64
2021/11/11 17:53:03;;;;;;;35.53;19.17;;;;;;;2.46;100.00;95810.78;4998062;28;20071;-65
2021/11/11 17:55:37;;;;;;;34.53;19.92;;;;;;;2.47;100.00;95817.72;5011099;28;20030;-65
2021/11/11 17:58:03;;;;;;;33.92;19.20;;;;;;;2.48;100.00;95816.69;5011519;28;20040;-65
2021/11/11 18:00:29;;;;;;;34.40;19.92;;;;;;;2.48;100.00;95815.88;5013164;28;20033;-64
2021/11/11 18:02:55;;;;;;;31.70;18.83;;;;;;;2.48;100.00;95811.41;5047789;22;20075;-61
2021/11/11 18:05:21;;;;;;;33.20;20.25;;;;;;;2.44;100.00;95815.47;5028769;28;20083;-62
2021/11/11 18:10:40;;;;;;;36.38;20.63;;;;;;;2.45;100.00;95821.56;4994089;28;20032;-62
2021/11/11 18:13:12;;;;;;;32.97;19.48;;;;;;;2.41;100.00;95810.56;5016824;28;20017;-62
2021/11/11 18:15:47;;;;;;;30.00;19.30;;;;;;;2.32;100.00;95811.75;5019144;28;20468;-62
2021/11/11 18:18:12;;;;;;;34.45;20.15;;;;;;;2.26;100.00;95809.88;4995301;28;20029;-62
2021/11/11 18:20:41;;;;;;;33.30;19.58;;;;;;;2.22;100.00;95806.00;5028656;28;20021;-62
2021/11/11 18:23:12;;;;;;;34.58;19.52;;;;;;;2.16;100.00;95807.56;5019518;28;20394;-61
2021/11/11 18:25:44;;;;;;;31.77;19.33;;;;;;;2.07;100.00;95816.69;5001353;28;20028;-62
2021/11/11 18:28:10;;;;;;;33.10;19.52;;;;;;;2.04;100.00;95815.22;5014969;28;20021;-62
2021/11/11 18:30:41;;;;;;;34.95;19.55;;;;;;;2.10;100.00;95818.94;5019420;28;20032;-60
2021/11/11 18:33:10;;;;;;;35.28;20.88;;;;;;;2.31;100.00;95803.00;5002435;28;20057;-60
2021/11/11 18:35:46;;;;;;;34.88;21.20;;;;;;;2.41;100.00;95812.41;4997891;28;20427;-62
2021/11/11 18:38:14;;;;;;;36.45;21.48;;;;;;;2.38;100.00;95802.19;5034874;28;20309;-62
2021/11/11 18:40:41;;;;;;;35.25;21.10;;;;;;;2.40;100.00;95802.84;5016961;28;20029;-62
2021/11/11 18:43:07;;;;;;;34.67;19.48;;;;;;;2.41;100.00;95799.19;5040859;28;20025;-62
2021/11/11 18:45:35;;;;;;;36.47;21.33;;;;;;;2.40;100.00;95789.63;5023120;28;20086;-62
2021/11/11 18:48:39;;;;;;;38.10;21.95;;;;;;;2.40;100.00;95787.78;5008511;28;20179;-62
2021/11/11 18:51:04;;;;;;;33.67;20.20;;;;;;;2.33;100.00;95769.25;5018287;28;20037;-62
2021/11/11 18:53:30;;;;;;;32.33;20.08;;;;;;;2.25;100.00;95771.25;5008230;28;20427;-62
2021/11/11 18:55:56;;;;;;;35.08;20.05;;;;;;;2.20;100.00;95774.47;5020016;28;20425;-62
2021/11/11 18:58:26;;;;;;;34.00;19.65;;;;;;;2.11;100.00;95774.84;5004543;28;20053;-62
2021/11/11 19:00:52;;;;;;;32.75;19.40;;;;;;;2.04;100.00;95766.84;5039323;28;20483;-62
2021/11/11 19:03:22;;;;;;;39.90;19.25;;;;;;;2.05;100.00;95763.19;5039523;28;20067;-62
2021/11/11 19:06:12;;;;;;;28.48;17.88;;;;;;;2.04;100.00;95758.94;5039820;28;20029;-62
2021/11/11 19:08:43;;;;;;;29.92;18.30;;;;;;;2.06;100.00;95756.91;5035418;28;20025;-62
2021/11/11 19:11:12;;;;;;;30.02;18.42;;;;;;;2.13;100.00;95754.31;5002343;28;20040;-59
2021/11/11 19:13:39;;;;;;;32.45;19.48;;;;;;;2.20;100.00;95760.44;5036896;28;20029;-61
2021/11/11 19:16:17;;;;;;;31.52;18.63;;;;;;;2.21;100.00;95754.16;5017683;28;20021;-62
2021/11/11 19:18:47;;;;;;;31.02;19.15;;;;;;;2.15;100.00;95745.16;5036267;28;20029;-61
2021/11/11 19:21:15;;;;;;;36.05;18.50;;;;;;;2.09;100.00;95753.88;5023912;28;20021;-62
2021/11/11 19:23:47;;;;;;;31.90;18.15;;;;;;;2.00;100.00;95755.06;5009170;28;20031;-62
2021/11/11 19:26:14;;;;;;;23.40;13.68;;;;;;;1.94;100.00;95750.53;5017575;28;20021;-62
2021/11/11 19:28:48;;;;;;;31.45;17.45;;;;;;;1.89;100.00;95758.25;5007289;28;20040;-61
2021/11/11 19:31:14;;;;;;;27.48;17.55;;;;;;;1.83;100.00;95753.72;5038367;28;20025;-62
2021/11/11 19:33:43;;;;;;;29.48;18.50;;;;;;;1.78;100.00;95751.69;5007026;28;20045;-62
2021/11/11 19:36:20;;;;;;;28.27;16.88;;;;;;;1.78;100.00;95753.50;5037354;28;20017;-62
2021/11/11 19:41:34;;;;;;;31.77;18.88;;;;;;;1.81;100.00;95745.19;5017730;28;20025;-62
2021/11/11 19:44:20;;;;;;;29.57;18.07;;;;;;;1.77;100.00;95733.38;5033838;28;20480;-62
2021/11/11 20:35:22;;;;;;;27.77;16.80;;;;;;;1.33;100.00;95700.19;5022401;28;20407;-61
2021/11/11 20:43:18;;;;;;;31.23;17.70;;;;;;;1.25;100.00;95693.22;5017604;28;20034;-61
2021/11/11 20:51:35;;;;;;;31.00;17.85;;;;;;;1.33;100.00;95677.25;5032612;28;20029;-62
2021/11/11 21:05:58;;;;;;;26.50;17.50;;;;;;;1.34;100.00;95656.97;5038390;28;20063;-62
2021/11/11 21:11:52;;;;;;;27.67;17.48;;;;;;;1.17;100.00;95651.16;5021984;28;20087;-61
2021/11/11 21:16:34;;;;;;;25.00;15.90;;;;;;;1.09;100.00;95646.84;5034072;28;20055;-62
2021/11/11 21:19:03;;;;;;;26.08;16.15;;;;;;;1.03;100.00;95638.88;5021950;28;20119;-61
2021/11/11 21:21:31;;;;;;;26.67;17.00;;;;;;;0.99;100.00;95646.38;5029181;28;20021;-61
2021/11/11 21:23:59;;;;;;;24.05;16.02;;;;;;;0.95;100.00;95642.47;4993941;28;20035;-61
2021/11/11 21:26:30;;;;;;;24.73;16.55;;;;;;;0.93;100.00;95641.03;4989873;28;20079;-60
2021/11/11 21:28:59;;;;;;;23.30;15.13;;;;;;;0.90;100.00;95636.97;5022561;28;20032;-60
2021/11/11 21:31:25;;;;;;;23.02;14.38;;;;;;;0.90;100.00;95639.59;5029795;28;20021;-61
2021/11/11 21:33:57;;;;;;;21.40;14.80;;;;;;;0.89;100.00;95631.88;5012917;28;20048;-61
2021/11/11 21:42:01;;;;;;;21.17;14.45;;;;;;;0.78;100.00;95625.31;5021638;28;20041;-60
2021/11/11 21:44:28;;;;;;;22.73;15.38;;;;;;;0.84;100.00;95612.16;5023563;28;20391;-61
2021/11/11 21:46:54;;;;;;;37.95;14.82;;;;;;;1.04;100.00;95608.84;5029058;28;20092;-61
2021/11/11 21:49:21;;;;;;;25.15;14.93;;;;;;;1.16;100.00;95602.03;5007820;28;20148;-61
2021/11/11 21:51:47;;;;;;;27.80;13.65;;;;;;;1.24;100.00;95591.31;5029472;28;20052;-61
2021/11/11 21:54:19;;;;;;;30.38;13.77;;;;;;;1.32;100.00;95590.38;4996783;28;20546;-61
2021/11/11 22:04:18;;;;;;;25.17;14.02;;;;;;;1.39;100.00;95581.44;5033235;28;20079;-62
2021/11/11 22:22:51;;;;;;;32.35;12.98;;;;;;;1.41;100.00;95555.69;5020085;28;20082;-61
2021/11/11 22:32:59;;;;;;;33.20;14.77;;;;;;;1.35;100.00;95545.09;5034030;28;20029;-62
2021/11/11 22:35:26;;;;;;;30.65;13.73;;;;;;;1.35;100.00;95535.34;5025339;28;20057;-62
2021/11/11 22:37:59;;;;;;;41.17;15.35;;;;;;;1.37;100.00;95528.06;4988913;28;20021;-61
2021/11/11 22:40:26;;;;;;;21.45;13.63;;;;;;;1.40;100.00;95522.38;5018395;28;20479;-60
2021/11/11 22:42:51;;;;;;;39.97;12.98;;;;;;;1.42;100.00;95520.38;5014490;28;20045;-62
2021/11/11 22:45:16;;;;;;;43.72;13.57;;;;;;;1.44;100.00;95517.53;5010485;28;20029;-62
2021/11/11 22:47:43;;;;;;;44.53;13.40;;;;;;;1.45;100.00;95524.44;5013818;28;20099;-60
2021/11/11 22:50:11;;;;;;;56.47;14.27;;;;;;;1.45;100.00;95527.88;5030701;28;20021;-61
2021/11/11 22:52:40;;;;;;;64.30;13.57;;;;;;;1.45;100.00;95524.44;5015233;28;20031;-62
2021/11/11 22:57:48;;;;;;;40.47;13.35;;;;;;;1.45;100.00;95524.44;5011191;28;20488;-62
2021/11/11 23:03:17;;;;;;;18.50;11.75;;;;;;;1.46;100.00;95518.16;5031183;28;20455;-62
2021/11/11 23:19:19;;;;;;;103.40;13.07;;;;;;;1.46;100.00;95481.19;5029392;28;20066;-62
2021/11/11 23:24:28;;;;;;;92.35;12.68;;;;;;;1.42;100.00;95478.13;5043234;28;20074;-61
2021/11/11 23:32:18;;;;;;;119.97;11.98;;;;;;;1.39;100.00;95469.78;5010518;28;20470;-61
2021/11/11 23:34:45;;;;;;;151.27;13.90;;;;;;;1.42;100.00;95474.69;5008295;28;20033;-62
2021/11/11 23:37:11;;;;;;;127.22;12.68;;;;;;;1.42;100.00;95466.78;5037164;28;20064;-62
2021/11/11 23:39:40;;;;;;;129.43;13.88;;;;;;;1.43;100.00;95460.47;5038272;28;20024;-62
2021/11/11 23:42:06;;;;;;;116.78;13.48;;;;;;;1.45;100.00;95458.44;5004911;28;20357;-62
2021/11/11 23:44:37;;;;;;;83.85;12.57;;;;;;;1.48;100.00;95449.31;5018813;28;20155;-62
2021/11/11 23:47:31;;;;;;;65.95;11.77;;;;;;;1.51;100.00;95446.25;5037188;28;20033;-62
2021/11/11 23:50:01;;;;;;;47.78;11.25;;;;;;;1.52;100.00;95446.09;5020017;28;20132;-62
2021/11/11 23:52:45;;;;;;;75.00;11.95;;;;;;;1.51;100.00;95433.06;5034882;28;20034;-62
